sensor_id;sensor_type;location;lat;lon;timestamp;pressure;altitude;pressure_sealevel;temperature;humidity
59315;BME280;46521;50.160;20.802;2023-04-03T00:07:27;99915.58;;;2.02;78.50
59315;BME280;46521;50.160;20.802;2023-04-03T00:17:29;99913.82;;;1.89;78.94
59315;BME280;46521;50.160;20.802;2023-04-03T00:27:30;99925.63;;;1.82;78.57
59315;BME280;46521;50.160;20.802;2023-04-03T00:37:32;99926.77;;;1.78;78.75
59315;BME280;46521;50.160;20.802;2023-04-03T00:47:33;99930.00;;;1.82;78.53
59315;BME280;46521;50.160;20.802;2023-04-03T00:57:36;99934.90;;;1.86;78.43
59315;BME280;46521;50.160;20.802;2023-04-03T01:07:39;99931.77;;;1.94;79.09
59315;BME280;46521;50.160;20.802;2023-04-03T01:27:47;99949.41;;;1.90;79.01
59315;BME280;46521;50.160;20.802;2023-04-03T01:37:49;99952.02;;;1.90;78.75
59315;BME280;46521;50.160;20.802;2023-04-03T01:47:50;99962.34;;;1.92;79.15
59315;BME280;46521;50.160;20.802;2023-04-03T01:57:52;99968.59;;;1.89;78.65
59315;BME280;46521;50.160;20.802;2023-04-03T02:07:53;99970.69;;;1.84;79.15
59315;BME280;46521;50.160;20.802;2023-04-03T02:17:55;99983.02;;;1.82;78.76
59315;BME280;46521;50.160;20.802;2023-04-03T02:27:56;99983.02;;;1.82;79.20
59315;BME280;46521;50.160;20.802;2023-04-03T02:37:58;99984.45;;;1.73;78.70
59315;BME280;46521;50.160;20.802;2023-04-03T02:47:59;99988.73;;;1.61;79.25
59315;BME280;46521;50.160;20.802;2023-04-03T02:58:01;99991.55;;;1.58;78.90
59315;BME280;46521;50.160;20.802;2023-04-03T03:08:02;100003.20;;;1.53;79.30
59315;BME280;46521;50.160;20.802;2023-04-03T03:18:04;100010.05;;;1.41;79.37
59315;BME280;46521;50.160;20.802;2023-04-03T03:28:06;100017.92;;;1.26;78.80
59315;BME280;46521;50.160;20.802;2023-04-03T03:38:08;100022.77;;;1.05;79.04
59315;BME280;46521;50.160;20.802;2023-04-03T03:48:10;100028.11;;;0.89;79.12
59315;BME280;46521;50.160;20.802;2023-04-03T03:58:11;100039.84;;;0.82;79.16
59315;BME280;46521;50.160;20.802;2023-04-03T04:08:13;100052.41;;;0.76;79.44
59315;BME280;46521;50.160;20.802;2023-04-03T04:18:14;100066.89;;;0.80;79.47
59315;BME280;46521;50.160;20.802;2023-04-03T04:28:16;100065.05;;;0.82;79.12
59315;BME280;46521;50.160;20.802;2023-04-03T04:38:18;100071.02;;;0.69;79.47
59315;BME280;46521;50.160;20.802;2023-04-03T04:48:19;100079.01;;;0.66;79.86
59315;BME280;46521;50.160;20.802;2023-04-03T04:58:21;100085.05;;;0.52;79.40
59315;BME280;46521;50.160;20.802;2023-04-03T05:08:23;100097.30;;;0.36;79.57
59315;BME280;46521;50.160;20.802;2023-04-03T05:18:24;100120.53;;;0.39;79.74
59315;BME280;46521;50.160;20.802;2023-04-03T05:28:26;100126.49;;;0.27;79.55
59315;BME280;46521;50.160;20.802;2023-04-03T05:38:27;100137.34;;;0.19;79.72
59315;BME280;46521;50.160;20.802;2023-04-03T05:48:30;100135.03;;;0.29;79.67
59315;BME280;46521;50.160;20.802;2023-04-03T05:58:31;100141.78;;;0.17;79.24
59315;BME280;46521;50.160;20.802;2023-04-03T06:08:33;100153.13;;;0.16;79.38
59315;BME280;46521;50.160;20.802;2023-04-03T06:18:35;100167.23;;;0.12;79.39
59315;BME280;46521;50.160;20.802;2023-04-03T06:28:37;100174.20;;;0.11;79.32
59315;BME280;46521;50.160;20.802;2023-04-03T06:38:38;100174.11;;;0.13;79.20
59315;BME280;46521;50.160;20.802;2023-04-03T06:48:40;100177.89;;;0.07;79.27
59315;BME280;46521;50.160;20.802;2023-04-03T06:58:43;100193.50;;;0.07;79.11
59315;BME280;46521;50.160;20.802;2023-04-03T07:08:45;100210.96;;;0.05;79.05
59315;BME280;46521;50.160;20.802;2023-04-03T07:18:47;100222.45;;;0.01;78.98
59315;BME280;46521;50.160;20.802;2023-04-03T07:28:49;100232.11;;;-0.01;78.96
59315;BME280;46521;50.160;20.802;2023-04-03T07:38:50;100244.28;;;-0.02;78.98
59315;BME280;46521;50.160;20.802;2023-04-03T07:48:52;100255.92;;;0.07;78.96
59315;BME280;46521;50.160;20.802;2023-04-03T07:58:53;100257.61;;;0.08;78.69
59315;BME280;46521;50.160;20.802;2023-04-03T08:08:55;100264.63;;;0.06;78.89
59315;BME280;46521;50.160;20.802;2023-04-03T08:18:57;100273.38;;;0.05;78.91
59315;BME280;46521;50.160;20.802;2023-04-03T08:28:58;100272.95;;;0.13;79.01
59315;BME280;46521;50.160;20.802;2023-04-03T08:39:00;100285.59;;;0.35;78.86
59315;BME280;46521;50.160;20.802;2023-04-03T08:49:04;100289.11;;;0.34;78.57
59315;BME280;46521;50.160;20.802;2023-04-03T08:59:13;100298.03;;;0.30;78.67
59315;BME280;46521;50.160;20.802;2023-04-03T09:29:35;100322.42;;;0.74;78.65
59315;BME280;46521;50.160;20.802;2023-04-03T09:39:50;100330.77;;;0.95;77.91
59315;BME280;46521;50.160;20.802;2023-04-03T09:50:20;100334.73;;;1.31;78.18
59315;BME280;46521;50.160;20.802;2023-04-03T10:00:23;100330.33;;;1.89;77.78
59315;BME280;46521;50.160;20.802;2023-04-03T10:10:26;100336.91;;;2.09;76.79
59315;BME280;46521;50.160;20.802;2023-04-03T10:20:40;100337.75;;;2.37;77.04
59315;BME280;46521;50.160;20.802;2023-04-03T11:01:41;100333.64;;;2.87;74.59
59315;BME280;46521;50.160;20.802;2023-04-03T11:11:43;100343.13;;;2.88;74.10
59315;BME280;46521;50.160;20.802;2023-04-03T11:21:56;100338.27;;;3.09;74.31
59315;BME280;46521;50.160;20.802;2023-04-03T11:42:34;100354.58;;;3.25;72.75
59315;BME280;46521;50.160;20.802;2023-04-03T12:02:39;100346.73;;;3.38;71.92
59315;BME280;46521;50.160;20.802;2023-04-03T12:12:41;100359.92;;;3.50;72.45
59315;BME280;46521;50.160;20.802;2023-04-03T12:33:44;100357.94;;;3.40;70.69
59315;BME280;46521;50.160;20.802;2023-04-03T12:44:15;100353.23;;;3.20;70.36
59315;BME280;46521;50.160;20.802;2023-04-03T13:04:31;100367.20;;;2.93;69.45
59315;BME280;46521;50.160;20.802;2023-04-03T13:14:33;100363.08;;;2.76;69.56
59315;BME280;46521;50.160;20.802;2023-04-03T13:24:37;100368.53;;;2.86;68.97
59315;BME280;46521;50.160;20.802;2023-04-03T13:34:42;100351.52;;;2.93;68.54
59315;BME280;46521;50.160;20.802;2023-04-03T13:44:43;100356.36;;;3.12;68.40
59315;BME280;46521;50.160;20.802;2023-04-03T13:54:46;100356.56;;;3.22;68.90
59315;BME280;46521;50.160;20.802;2023-04-03T14:04:52;100352.58;;;3.16;67.43
59315;BME280;46521;50.160;20.802;2023-04-03T14:14:58;100360.86;;;3.23;67.51
59315;BME280;46521;50.160;20.802;2023-04-03T14:24:59;100349.66;;;3.21;67.26
59315;BME280;46521;50.160;20.802;2023-04-03T14:35:01;100344.12;;;3.25;66.87
59315;BME280;46521;50.160;20.802;2023-04-03T14:45:08;100343.18;;;3.39;66.38
59315;BME280;46521;50.160;20.802;2023-04-03T14:55:15;100326.86;;;3.49;66.30
59315;BME280;46521;50.160;20.802;2023-04-03T15:05:16;100330.00;;;3.41;66.20
59315;BME280;46521;50.160;20.802;2023-04-03T15:15:20;100332.72;;;3.39;66.05
59315;BME280;46521;50.160;20.802;2023-04-03T15:25:22;100323.30;;;3.24;65.99
59315;BME280;46521;50.160;20.802;2023-04-03T15:35:24;100332.42;;;3.31;65.63
59315;BME280;46521;50.160;20.802;2023-04-03T15:45:28;100327.19;;;3.18;65.96
59315;BME280;46521;50.160;20.802;2023-04-03T15:55:32;100319.31;;;3.05;65.60
59315;BME280;46521;50.160;20.802;2023-04-03T16:05:36;100329.16;;;3.15;65.27
59315;BME280;46521;50.160;20.802;2023-04-03T16:15:40;100335.20;;;3.02;65.25
59315;BME280;46521;50.160;20.802;2023-04-03T16:25:41;100343.69;;;2.93;65.31
59315;BME280;46521;50.160;20.802;2023-04-03T16:35:48;100335.70;;;2.82;65.44
59315;BME280;46521;50.160;20.802;2023-04-03T16:45:49;100330.75;;;2.64;64.28
59315;BME280;46521;50.160;20.802;2023-04-03T16:55:51;100330.42;;;2.56;64.20
59315;BME280;46521;50.160;20.802;2023-04-03T17:05:53;100345.95;;;2.45;64.01
59315;BME280;46521;50.160;20.802;2023-04-03T17:15:54;100359.49;;;2.37;63.99
59315;BME280;46521;50.160;20.802;2023-04-03T17:25:56;100364.27;;;2.30;64.13
59315;BME280;46521;50.160;20.802;2023-04-03T17:35:59;100383.02;;;2.23;63.86
59315;BME280;46521;50.160;20.802;2023-04-03T17:46:04;100386.02;;;2.02;64.45
59315;BME280;46521;50.160;20.802;2023-04-03T17:56:11;100398.62;;;1.81;64.87
59315;BME280;46521;50.160;20.802;2023-04-03T18:06:16;100404.02;;;1.64;64.82
59315;BME280;46521;50.160;20.802;2023-04-03T18:16:18;100397.84;;;1.50;64.85
59315;BME280;46521;50.160;20.802;2023-04-03T18:26:19;100405.02;;;1.47;64.81
59315;BME280;46521;50.160;20.802;2023-04-03T18:36:22;100399.16;;;1.43;64.96
59315;BME280;46521;50.160;20.802;2023-04-03T18:46:24;100397.84;;;1.36;64.84
59315;BME280;46521;50.160;20.802;2023-04-03T18:56:26;100400.53;;;1.34;64.56
59315;BME280;46521;50.160;20.802;2023-04-03T19:06:28;100388.81;;;1.27;65.17
59315;BME280;46521;50.160;20.802;2023-04-03T19:16:29;100417.56;;;1.25;64.93
59315;BME280;46521;50.160;20.802;2023-04-03T19:26:31;100416.44;;;1.30;64.46
59315;BME280;46521;50.160;20.802;2023-04-03T19:36:33;100412.53;;;1.22;65.09
59315;BME280;46521;50.160;20.802;2023-04-03T19:46:35;100416.70;;;1.25;65.12
59315;BME280;46521;50.160;20.802;2023-04-03T19:56:36;100409.39;;;1.32;64.74
59315;BME280;46521;50.160;20.802;2023-04-03T20:06:38;100409.95;;;1.37;64.80
59315;BME280;46521;50.160;20.802;2023-04-03T20:16:39;100408.08;;;1.39;64.59
59315;BME280;46521;50.160;20.802;2023-04-03T20:26:42;100403.05;;;1.36;64.55
59315;BME280;46521;50.160;20.802;2023-04-03T20:36:46;100403.23;;;1.33;64.72
59315;BME280;46521;50.160;20.802;2023-04-03T20:46:47;100412.83;;;1.32;64.93
59315;BME280;46521;50.160;20.802;2023-04-03T20:56:49;100405.19;;;1.29;64.78
59315;BME280;46521;50.160;20.802;2023-04-03T21:27:33;100426.09;;;1.13;65.16
59315;BME280;46521;50.160;20.802;2023-04-03T21:37:34;100432.22;;;1.12;65.21
59315;BME280;46521;50.160;20.802;2023-04-03T21:47:36;100421.70;;;1.14;65.12
59315;BME280;46521;50.160;20.802;2023-04-03T21:57:38;100409.24;;;1.19;65.44
59315;BME280;46521;50.160;20.802;2023-04-03T22:07:43;100409.84;;;1.24;65.45
59315;BME280;46521;50.160;20.802;2023-04-03T22:17:47;100386.47;;;1.22;65.58
59315;BME280;46521;50.160;20.802;2023-04-03T22:27:49;100353.85;;;1.01;65.49
59315;BME280;46521;50.160;20.802;2023-04-03T22:37:50;100339.29;;;0.82;65.58
59315;BME280;46521;50.160;20.802;2023-04-03T22:47:52;100309.19;;;0.62;65.54
59315;BME280;46521;50.160;20.802;2023-04-03T22:57:58;100307.37;;;0.48;65.70
59315;BME280;46521;50.160;20.802;2023-04-03T23:07:59;100294.48;;;0.31;65.76
59315;BME280;46521;50.160;20.802;2023-04-03T23:18:01;100285.53;;;0.21;65.68
59315;BME280;46521;50.160;20.802;2023-04-03T23:28:02;100288.48;;;0.14;65.74
59315;BME280;46521;50.160;20.802;2023-04-03T23:38:04;100288.30;;;0.02;65.68
59315;BME280;46521;50.160;20.802;2023-04-03T23:48:06;100300.97;;;-0.08;66.02
